sensor_id;sensor_type;location;lat;lon;timestamp;P1;durP1;ratioP1;P2;durP2;ratioP2
40022;SDS011;25713;-35.352;149.036;2023-05-19T00:01:43;0.95;;;0.70;;
40022;SDS011;25713;-35.352;149.036;2023-05-19T00:04:14;1.23;;;0.80;;
40022;SDS011;25713;-35.352;149.036;2023-05-19T00:06:46;2.45;;;0.80;;
40022;SDS011;25713;-35.352;149.036;2023-05-19T00:09:18;1.00;;;0.80;;
40022;SDS011;25713;-35.352;149.036;2023-05-19T00:11:48;2.28;;;1.02;;
40022;SDS011;25713;-35.352;149.036;2023-05-19T00:14:18;0.85;;;0.70;;
40022;SDS011;25713;-35.352;149.036;2023-05-19T00:16:48;1.02;;;0.80;;
40022;SDS011;25713;-35.352;149.036;2023-05-19T00:19:17;1.33;;;0.60;;
40022;SDS011;25713;-35.352;149.036;2023-05-19T00:21:49;1.20;;;0.63;;
40022;SDS011;25713;-35.352;149.036;2023-05-19T00:24:18;0.60;;;0.60;;
40022;SDS011;25713;-35.352;149.036;2023-05-19T00:26:48;0.93;;;0.52;;
40022;SDS011;25713;-35.352;149.036;2023-05-19T00:29:17;1.50;;;0.90;;
40022;SDS011;25713;-35.352;149.036;2023-05-19T00:31:47;0.60;;;0.60;;
40022;SDS011;25713;-35.352;149.036;2023-05-19T00:34:16;1.52;;;0.60;;
40022;SDS011;25713;-35.352;149.036;2023-05-19T00:36:46;1.30;;;0.70;;
40022;SDS011;25713;-35.352;149.036;2023-05-19T00:39:17;1.30;;;0.60;;
40022;SDS011;25713;-35.352;149.036;2023-05-19T00:41:48;0.85;;;0.60;;
40022;SDS011;25713;-35.352;149.036;2023-05-19T00:44:17;0.85;;;0.60;;
40022;SDS011;25713;-35.352;149.036;2023-05-19T00:46:46;0.63;;;0.60;;
40022;SDS011;25713;-35.352;149.036;2023-05-19T00:49:16;1.50;;;0.57;;
40022;SDS011;25713;-35.352;149.036;2023-05-19T00:51:45;1.17;;;0.70;;
40022;SDS011;25713;-35.352;149.036;2023-05-19T00:54:18;0.95;;;0.73;;
40022;SDS011;25713;-35.352;149.036;2023-05-19T00:56:48;1.48;;;0.70;;
40022;SDS011;25713;-35.352;149.036;2023-05-19T00:59:18;0.70;;;0.70;;
40022;SDS011;25713;-35.352;149.036;2023-05-19T01:01:48;0.82;;;0.75;;
40022;SDS011;25713;-35.352;149.036;2023-05-19T01:04:18;0.82;;;0.80;;
40022;SDS011;25713;-35.352;149.036;2023-05-19T01:06:49;1.33;;;0.80;;
40022;SDS011;25713;-35.352;149.036;2023-05-19T01:09:23;0.73;;;0.70;;
40022;SDS011;25713;-35.352;149.036;2023-05-19T01:11:52;0.70;;;0.70;;
40022;SDS011;25713;-35.352;149.036;2023-05-19T01:14:23;1.40;;;0.60;;
40022;SDS011;25713;-35.352;149.036;2023-05-19T01:16:55;1.90;;;0.88;;
40022;SDS011;25713;-35.352;149.036;2023-05-19T01:19:34;0.80;;;0.70;;
40022;SDS011;25713;-35.352;149.036;2023-05-19T01:22:21;0.95;;;0.70;;
40022;SDS011;25713;-35.352;149.036;2023-05-19T01:31:10;1.08;;;0.80;;
40022;SDS011;25713;-35.352;149.036;2023-05-19T01:33:40;1.38;;;0.65;;
40022;SDS011;25713;-35.352;149.036;2023-05-19T01:36:12;1.10;;;0.70;;
40022;SDS011;25713;-35.352;149.036;2023-05-19T01:38:43;4.07;;;0.68;;
40022;SDS011;25713;-35.352;149.036;2023-05-19T01:41:14;2.83;;;0.70;;
40022;SDS011;25713;-35.352;149.036;2023-05-19T01:43:45;0.73;;;0.60;;
40022;SDS011;25713;-35.352;149.036;2023-05-19T01:46:19;1.80;;;0.60;;
40022;SDS011;25713;-35.352;149.036;2023-05-19T01:48:50;0.88;;;0.55;;
40022;SDS011;25713;-35.352;149.036;2023-05-19T01:51:21;1.43;;;0.60;;
40022;SDS011;25713;-35.352;149.036;2023-05-19T01:53:51;2.35;;;0.60;;
40022;SDS011;25713;-35.352;149.036;2023-05-19T01:56:22;0.90;;;0.50;;
40022;SDS011;25713;-35.352;149.036;2023-05-19T01:59:00;2.33;;;0.65;;
40022;SDS011;25713;-35.352;149.036;2023-05-19T02:01:44;3.78;;;0.75;;
40022;SDS011;25713;-35.352;149.036;2023-05-19T02:04:19;1.48;;;0.63;;
40022;SDS011;25713;-35.352;149.036;2023-05-19T02:06:59;0.70;;;0.70;;
40022;SDS011;25713;-35.352;149.036;2023-05-19T02:09:37;1.75;;;0.50;;
40022;SDS011;25713;-35.352;149.036;2023-05-19T02:12:13;0.70;;;0.45;;
40022;SDS011;25713;-35.352;149.036;2023-05-19T02:14:48;0.88;;;0.55;;
40022;SDS011;25713;-35.352;149.036;2023-05-19T02:17:24;1.33;;;0.70;;
40022;SDS011;25713;-35.352;149.036;2023-05-19T02:19:56;1.00;;;0.80;;
40022;SDS011;25713;-35.352;149.036;2023-05-19T02:22:26;5.18;;;0.80;;
40022;SDS011;25713;-35.352;149.036;2023-05-19T02:24:55;0.77;;;0.77;;
40022;SDS011;25713;-35.352;149.036;2023-05-19T02:27:25;2.20;;;0.80;;
40022;SDS011;25713;-35.352;149.036;2023-05-19T02:29:54;2.22;;;0.80;;
40022;SDS011;25713;-35.352;149.036;2023-05-19T02:32:27;1.38;;;0.70;;
40022;SDS011;25713;-35.352;149.036;2023-05-19T02:34:57;0.95;;;0.70;;
40022;SDS011;25713;-35.352;149.036;2023-05-19T02:37:26;0.75;;;0.70;;
40022;SDS011;25713;-35.352;149.036;2023-05-19T02:39:56;1.95;;;0.73;;
40022;SDS011;25713;-35.352;149.036;2023-05-19T02:42:26;2.03;;;0.80;;
40022;SDS011;25713;-35.352;149.036;2023-05-19T02:44:56;1.13;;;0.90;;
40022;SDS011;25713;-35.352;149.036;2023-05-19T02:47:27;1.33;;;0.80;;
40022;SDS011;25713;-35.352;149.036;2023-05-19T02:49:57;1.63;;;0.60;;
40022;SDS011;25713;-35.352;149.036;2023-05-19T02:52:26;1.27;;;0.80;;
40022;SDS011;25713;-35.352;149.036;2023-05-19T02:54:56;1.40;;;0.93;;
40022;SDS011;25713;-35.352;149.036;2023-05-19T02:57:25;2.47;;;1.00;;
40022;SDS011;25713;-35.352;149.036;2023-05-19T02:59:56;1.85;;;0.90;;
40022;SDS011;25713;-35.352;149.036;2023-05-19T03:02:27;3.22;;;0.95;;
40022;SDS011;25713;-35.352;149.036;2023-05-19T03:04:57;2.78;;;1.00;;
40022;SDS011;25713;-35.352;149.036;2023-05-19T03:07:26;1.95;;;1.10;;
40022;SDS011;25713;-35.352;149.036;2023-05-19T03:09:56;2.13;;;1.20;;
40022;SDS011;25713;-35.352;149.036;2023-05-19T03:12:26;3.67;;;1.13;;
40022;SDS011;25713;-35.352;149.036;2023-05-19T03:14:55;2.10;;;1.10;;
40022;SDS011;25713;-35.352;149.036;2023-05-19T03:17:24;1.02;;;0.90;;
40022;SDS011;25713;-35.352;149.036;2023-05-19T03:19:56;1.92;;;1.15;;
40022;SDS011;25713;-35.352;149.036;2023-05-19T03:22:25;2.63;;;1.30;;
40022;SDS011;25713;-35.352;149.036;2023-05-19T03:24:55;2.25;;;1.38;;
40022;SDS011;25713;-35.352;149.036;2023-05-19T03:27:24;3.92;;;1.67;;
40022;SDS011;25713;-35.352;149.036;2023-05-19T03:29:54;2.03;;;1.40;;
40022;SDS011;25713;-35.352;149.036;2023-05-19T03:32:24;3.80;;;1.60;;
40022;SDS011;25713;-35.352;149.036;2023-05-19T03:34:57;1.80;;;1.50;;
40022;SDS011;25713;-35.352;149.036;2023-05-19T03:37:26;2.10;;;1.90;;
40022;SDS011;25713;-35.352;149.036;2023-05-19T03:39:56;4.15;;;1.92;;
40022;SDS011;25713;-35.352;149.036;2023-05-19T03:42:25;3.78;;;1.63;;
40022;SDS011;25713;-35.352;149.036;2023-05-19T03:44:55;5.57;;;1.83;;
40022;SDS011;25713;-35.352;149.036;2023-05-19T03:47:24;2.70;;;1.90;;
40022;SDS011;25713;-35.352;149.036;2023-05-19T03:50:16;3.10;;;1.83;;
40022;SDS011;25713;-35.352;149.036;2023-05-19T03:52:56;3.15;;;1.88;;
40022;SDS011;25713;-35.352;149.036;2023-05-19T03:55:31;2.90;;;1.65;;
40022;SDS011;25713;-35.352;149.036;2023-05-19T03:58:01;4.32;;;2.13;;
40022;SDS011;25713;-35.352;149.036;2023-05-19T04:00:31;2.45;;;1.95;;
40022;SDS011;25713;-35.352;149.036;2023-05-19T04:03:03;4.18;;;1.90;;
40022;SDS011;25713;-35.352;149.036;2023-05-19T04:05:34;3.53;;;1.77;;
40022;SDS011;25713;-35.352;149.036;2023-05-19T04:08:04;2.95;;;1.83;;
40022;SDS011;25713;-35.352;149.036;2023-05-19T04:10:34;2.90;;;1.80;;
40022;SDS011;25713;-35.352;149.036;2023-05-19T04:13:03;3.53;;;1.70;;
40022;SDS011;25713;-35.352;149.036;2023-05-19T04:15:33;2.45;;;1.90;;
40022;SDS011;25713;-35.352;149.036;2023-05-19T04:18:04;1.98;;;1.58;;
40022;SDS011;25713;-35.352;149.036;2023-05-19T04:20:34;2.97;;;2.08;;
40022;SDS011;25713;-35.352;149.036;2023-05-19T04:23:04;3.95;;;2.28;;
40022;SDS011;25713;-35.352;149.036;2023-05-19T04:25:34;2.75;;;1.90;;
40022;SDS011;25713;-35.352;149.036;2023-05-19T04:28:03;2.85;;;1.88;;
40022;SDS011;25713;-35.352;149.036;2023-05-19T04:30:32;3.50;;;1.75;;
40022;SDS011;25713;-35.352;149.036;2023-05-19T04:33:05;4.00;;;1.80;;
40022;SDS011;25713;-35.352;149.036;2023-05-19T04:35:35;1.77;;;1.60;;
40022;SDS011;25713;-35.352;149.036;2023-05-19T04:38:05;2.30;;;1.70;;
40022;SDS011;25713;-35.352;149.036;2023-05-19T04:40:35;2.00;;;1.40;;
40022;SDS011;25713;-35.352;149.036;2023-05-19T04:43:05;2.33;;;1.60;;
40022;SDS011;25713;-35.352;149.036;2023-05-19T04:45:34;1.77;;;1.33;;
40022;SDS011;25713;-35.352;149.036;2023-05-19T04:48:08;2.72;;;1.50;;
40022;SDS011;25713;-35.352;149.036;2023-05-19T04:50:38;3.28;;;1.55;;
40022;SDS011;25713;-35.352;149.036;2023-05-19T04:53:08;6.03;;;1.33;;
40022;SDS011;25713;-35.352;149.036;2023-05-19T04:55:38;2.15;;;1.35;;
40022;SDS011;25713;-35.352;149.036;2023-05-19T04:58:07;2.42;;;1.20;;
40022;SDS011;25713;-35.352;149.036;2023-05-19T05:00:37;2.75;;;1.10;;
40022;SDS011;25713;-35.352;149.036;2023-05-19T05:03:12;3.78;;;1.33;;
40022;SDS011;25713;-35.352;149.036;2023-05-19T05:05:41;3.17;;;1.30;;
40022;SDS011;25713;-35.352;149.036;2023-05-19T05:08:11;2.03;;;1.30;;
40022;SDS011;25713;-35.352;149.036;2023-05-19T05:10:43;1.67;;;1.08;;
40022;SDS011;25713;-35.352;149.036;2023-05-19T05:13:12;1.10;;;1.00;;
40022;SDS011;25713;-35.352;149.036;2023-05-19T05:15:43;3.58;;;1.20;;
40022;SDS011;25713;-35.352;149.036;2023-05-19T05:18:17;2.08;;;1.00;;
40022;SDS011;25713;-35.352;149.036;2023-05-19T05:20:47;1.92;;;1.10;;
40022;SDS011;25713;-35.352;149.036;2023-05-19T05:23:17;3.85;;;1.15;;
40022;SDS011;25713;-35.352;149.036;2023-05-19T05:25:48;2.60;;;1.50;;
40022;SDS011;25713;-35.352;149.036;2023-05-19T05:28:19;1.95;;;1.30;;
40022;SDS011;25713;-35.352;149.036;2023-05-19T05:30:48;4.07;;;1.00;;
40022;SDS011;25713;-35.352;149.036;2023-05-19T05:33:21;1.17;;;1.00;;
40022;SDS011;25713;-35.352;149.036;2023-05-19T05:35:51;2.33;;;1.20;;
40022;SDS011;25713;-35.352;149.036;2023-05-19T05:38:21;1.17;;;0.82;;
40022;SDS011;25713;-35.352;149.036;2023-05-19T05:40:51;1.00;;;0.90;;
40022;SDS011;25713;-35.352;149.036;2023-05-19T05:43:20;3.80;;;1.13;;
40022;SDS011;25713;-35.352;149.036;2023-05-19T05:45:56;1.60;;;1.20;;
40022;SDS011;25713;-35.352;149.036;2023-05-19T05:48:30;3.40;;;1.00;;
40022;SDS011;25713;-35.352;149.036;2023-05-19T05:51:00;3.38;;;1.23;;
40022;SDS011;25713;-35.352;149.036;2023-05-19T05:53:32;1.17;;;1.08;;
40022;SDS011;25713;-35.352;149.036;2023-05-19T05:56:08;3.28;;;1.00;;
40022;SDS011;25713;-35.352;149.036;2023-05-19T05:58:45;1.10;;;1.00;;
40022;SDS011;25713;-35.352;149.036;2023-05-19T06:01:14;1.15;;;1.05;;
40022;SDS011;25713;-35.352;149.036;2023-05-19T06:03:48;3.92;;;1.40;;
40022;SDS011;25713;-35.352;149.036;2023-05-19T06:06:21;2.40;;;1.30;;
40022;SDS011;25713;-35.352;149.036;2023-05-19T06:08:53;2.07;;;1.27;;
40022;SDS011;25713;-35.352;149.036;2023-05-19T06:11:23;2.00;;;1.52;;
40022;SDS011;25713;-35.352;149.036;2023-05-19T06:13:54;1.95;;;1.20;;
40022;SDS011;25713;-35.352;149.036;2023-05-19T06:16:43;5.22;;;1.30;;
40022;SDS011;25713;-35.352;149.036;2023-05-19T06:19:17;1.80;;;1.30;;
40022;SDS011;25713;-35.352;149.036;2023-05-19T06:21:47;1.70;;;1.30;;
40022;SDS011;25713;-35.352;149.036;2023-05-19T06:24:16;1.23;;;1.10;;
40022;SDS011;25713;-35.352;149.036;2023-05-19T06:26:46;3.17;;;1.20;;
40022;SDS011;25713;-35.352;149.036;2023-05-19T06:29:17;1.70;;;1.00;;
40022;SDS011;25713;-35.352;149.036;2023-05-19T06:31:48;1.45;;;1.10;;
40022;SDS011;25713;-35.352;149.036;2023-05-19T06:34:20;1.58;;;1.10;;
40022;SDS011;25713;-35.352;149.036;2023-05-19T06:36:50;1.40;;;1.30;;
40022;SDS011;25713;-35.352;149.036;2023-05-19T06:39:20;1.85;;;1.05;;
40022;SDS011;25713;-35.352;149.036;2023-05-19T06:41:50;1.67;;;1.20;;
40022;SDS011;25713;-35.352;149.036;2023-05-19T06:44:54;1.48;;;1.38;;
40022;SDS011;25713;-35.352;149.036;2023-05-19T06:47:24;2.33;;;1.20;;
40022;SDS011;25713;-35.352;149.036;2023-05-19T06:49:56;3.22;;;2.50;;
40022;SDS011;25713;-35.352;149.036;2023-05-19T06:52:29;2.67;;;1.75;;
40022;SDS011;25713;-35.352;149.036;2023-05-19T06:55:01;3.60;;;1.93;;
40022;SDS011;25713;-35.352;149.036;2023-05-19T06:57:32;4.47;;;1.80;;
40022;SDS011;25713;-35.352;149.036;2023-05-19T07:00:03;3.40;;;2.00;;
40022;SDS011;25713;-35.352;149.036;2023-05-19T07:02:33;3.92;;;1.98;;
40022;SDS011;25713;-35.352;149.036;2023-05-19T07:05:06;2.67;;;2.22;;
40022;SDS011;25713;-35.352;149.036;2023-05-19T07:07:36;2.38;;;2.17;;
40022;SDS011;25713;-35.352;149.036;2023-05-19T07:10:09;3.88;;;2.50;;
40022;SDS011;25713;-35.352;149.036;2023-05-19T07:12:39;2.70;;;2.35;;
40022;SDS011;25713;-35.352;149.036;2023-05-19T07:15:09;3.05;;;2.35;;
40022;SDS011;25713;-35.352;149.036;2023-05-19T07:17:39;2.25;;;2.05;;
40022;SDS011;25713;-35.352;149.036;2023-05-19T07:20:11;2.95;;;2.58;;
40022;SDS011;25713;-35.352;149.036;2023-05-19T07:22:40;3.58;;;2.33;;
40022;SDS011;25713;-35.352;149.036;2023-05-19T07:25:10;3.28;;;2.38;;
40022;SDS011;25713;-35.352;149.036;2023-05-19T07:27:40;7.22;;;2.60;;
40022;SDS011;25713;-35.352;149.036;2023-05-19T07:30:10;3.25;;;2.28;;
40022;SDS011;25713;-35.352;149.036;2023-05-19T07:32:40;3.75;;;2.35;;
40022;SDS011;25713;-35.352;149.036;2023-05-19T07:35:11;3.88;;;2.50;;
40022;SDS011;25713;-35.352;149.036;2023-05-19T07:37:41;2.67;;;2.47;;
40022;SDS011;25713;-35.352;149.036;2023-05-19T07:40:11;3.10;;;2.47;;
40022;SDS011;25713;-35.352;149.036;2023-05-19T07:42:40;2.88;;;2.42;;
40022;SDS011;25713;-35.352;149.036;2023-05-19T07:45:10;3.42;;;2.60;;
40022;SDS011;25713;-35.352;149.036;2023-05-19T07:47:39;3.30;;;2.60;;
40022;SDS011;25713;-35.352;149.036;2023-05-19T07:50:09;3.30;;;2.65;;
40022;SDS011;25713;-35.352;149.036;2023-05-19T07:52:40;4.23;;;2.83;;
40022;SDS011;25713;-35.352;149.036;2023-05-19T07:55:09;3.53;;;2.90;;
40022;SDS011;25713;-35.352;149.036;2023-05-19T07:57:39;4.22;;;2.45;;
40022;SDS011;25713;-35.352;149.036;2023-05-19T08:00:09;4.05;;;2.53;;
40022;SDS011;25713;-35.352;149.036;2023-05-19T08:02:38;3.05;;;2.50;;
40022;SDS011;25713;-35.352;149.036;2023-05-19T08:05:08;4.18;;;2.60;;
40022;SDS011;25713;-35.352;149.036;2023-05-19T08:07:40;3.35;;;3.05;;
40022;SDS011;25713;-35.352;149.036;2023-05-19T08:10:09;5.07;;;2.75;;
40022;SDS011;25713;-35.352;149.036;2023-05-19T08:12:39;4.63;;;2.58;;
40022;SDS011;25713;-35.352;149.036;2023-05-19T08:15:08;2.72;;;2.40;;
40022;SDS011;25713;-35.352;149.036;2023-05-19T08:17:38;3.75;;;2.90;;
40022;SDS011;25713;-35.352;149.036;2023-05-19T08:20:08;3.28;;;2.70;;
40022;SDS011;25713;-35.352;149.036;2023-05-19T08:22:40;3.60;;;2.70;;
40022;SDS011;25713;-35.352;149.036;2023-05-19T08:25:09;3.45;;;2.70;;
40022;SDS011;25713;-35.352;149.036;2023-05-19T08:27:39;2.88;;;2.50;;
40022;SDS011;25713;-35.352;149.036;2023-05-19T08:30:08;3.63;;;2.60;;
40022;SDS011;25713;-35.352;149.036;2023-05-19T08:32:38;2.97;;;2.47;;
40022;SDS011;25713;-35.352;149.036;2023-05-19T08:35:08;5.55;;;2.67;;
40022;SDS011;25713;-35.352;149.036;2023-05-19T08:37:40;3.10;;;2.65;;
40022;SDS011;25713;-35.352;149.036;2023-05-19T08:40:10;3.13;;;2.47;;
40022;SDS011;25713;-35.352;149.036;2023-05-19T08:42:44;4.15;;;2.60;;
40022;SDS011;25713;-35.352;149.036;2023-05-19T08:45:14;3.10;;;2.50;;
40022;SDS011;25713;-35.352;149.036;2023-05-19T08:47:43;3.17;;;2.53;;
40022;SDS011;25713;-35.352;149.036;2023-05-19T08:50:14;5.13;;;2.50;;
40022;SDS011;25713;-35.352;149.036;2023-05-19T08:52:51;5.00;;;2.42;;
40022;SDS011;25713;-35.352;149.036;2023-05-19T08:55:26;5.57;;;2.40;;
40022;SDS011;25713;-35.352;149.036;2023-05-19T08:58:00;2.78;;;2.25;;
40022;SDS011;25713;-35.352;149.036;2023-05-19T09:00:30;3.17;;;2.42;;
40022;SDS011;25713;-35.352;149.036;2023-05-19T09:03:00;2.83;;;2.35;;
40022;SDS011;25713;-35.352;149.036;2023-05-19T09:05:31;4.60;;;2.40;;
40022;SDS011;25713;-35.352;149.036;2023-05-19T09:08:04;2.85;;;2.50;;
40022;SDS011;25713;-35.352;149.036;2023-05-19T09:10:34;2.35;;;2.15;;
40022;SDS011;25713;-35.352;149.036;2023-05-19T09:13:03;4.00;;;2.42;;
40022;SDS011;25713;-35.352;149.036;2023-05-19T09:15:33;2.78;;;2.40;;
40022;SDS011;25713;-35.352;149.036;2023-05-19T09:18:06;2.50;;;2.10;;
40022;SDS011;25713;-35.352;149.036;2023-05-19T09:20:39;2.63;;;2.28;;
40022;SDS011;25713;-35.352;149.036;2023-05-19T09:23:14;3.88;;;2.30;;
40022;SDS011;25713;-35.352;149.036;2023-05-19T09:25:48;2.45;;;2.03;;
40022;SDS011;25713;-35.352;149.036;2023-05-19T09:28:24;3.15;;;2.33;;
40022;SDS011;25713;-35.352;149.036;2023-05-19T09:30:58;3.13;;;2.28;;
40022;SDS011;25713;-35.352;149.036;2023-05-19T09:33:29;2.97;;;2.10;;
40022;SDS011;25713;-35.352;149.036;2023-05-19T09:36:00;3.83;;;2.28;;
40022;SDS011;25713;-35.352;149.036;2023-05-19T09:38:33;3.22;;;2.00;;
40022;SDS011;25713;-35.352;149.036;2023-05-19T09:41:03;2.53;;;1.98;;
40022;SDS011;25713;-35.352;149.036;2023-05-19T09:43:35;2.78;;;1.90;;
40022;SDS011;25713;-35.352;149.036;2023-05-19T09:46:05;2.53;;;1.95;;
40022;SDS011;25713;-35.352;149.036;2023-05-19T09:48:39;3.55;;;2.17;;
40022;SDS011;25713;-35.352;149.036;2023-05-19T09:51:09;3.58;;;2.13;;
40022;SDS011;25713;-35.352;149.036;2023-05-19T09:53:40;2.28;;;1.88;;
40022;SDS011;25713;-35.352;149.036;2023-05-19T09:56:12;3.28;;;2.13;;
40022;SDS011;25713;-35.352;149.036;2023-05-19T09:58:42;2.67;;;1.65;;
40022;SDS011;25713;-35.352;149.036;2023-05-19T10:01:12;2.08;;;1.90;;
40022;SDS011;25713;-35.352;149.036;2023-05-19T10:03:41;2.95;;;2.10;;
40022;SDS011;25713;-35.352;149.036;2023-05-19T10:06:12;3.20;;;2.08;;
40022;SDS011;25713;-35.352;149.036;2023-05-19T10:08:44;3.72;;;2.00;;
40022;SDS011;25713;-35.352;149.036;2023-05-19T10:11:15;2.13;;;1.92;;
40022;SDS011;25713;-35.352;149.036;2023-05-19T10:13:45;1.90;;;1.73;;
40022;SDS011;25713;-35.352;149.036;2023-05-19T10:16:17;4.37;;;2.07;;
40022;SDS011;25713;-35.352;149.036;2023-05-19T10:18:50;3.00;;;1.83;;
40022;SDS011;25713;-35.352;149.036;2023-05-19T10:21:21;2.47;;;1.70;;
40022;SDS011;25713;-35.352;149.036;2023-05-19T10:23:53;2.65;;;2.03;;
40022;SDS011;25713;-35.352;149.036;2023-05-19T10:26:22;2.90;;;1.60;;
40022;SDS011;25713;-35.352;149.036;2023-05-19T10:28:52;1.92;;;1.80;;
40022;SDS011;25713;-35.352;149.036;2023-05-19T10:31:22;2.45;;;1.92;;
40022;SDS011;25713;-35.352;149.036;2023-05-19T10:33:55;2.40;;;1.90;;
40022;SDS011;25713;-35.352;149.036;2023-05-19T10:36:36;3.33;;;1.70;;
40022;SDS011;25713;-35.352;149.036;2023-05-19T10:39:16;2.00;;;1.77;;
40022;SDS011;25713;-35.352;149.036;2023-05-19T10:41:55;2.40;;;1.92;;
40022;SDS011;25713;-35.352;149.036;2023-05-19T10:44:34;3.60;;;2.58;;
40022;SDS011;25713;-35.352;149.036;2023-05-19T10:47:13;2.15;;;1.90;;
40022;SDS011;25713;-35.352;149.036;2023-05-19T10:49:51;3.70;;;2.20;;
40022;SDS011;25713;-35.352;149.036;2023-05-19T10:52:21;2.67;;;1.90;;
40022;SDS011;25713;-35.352;149.036;2023-05-19T10:54:53;3.08;;;1.90;;
40022;SDS011;25713;-35.352;149.036;2023-05-19T10:57:24;2.50;;;1.80;;
40022;SDS011;25713;-35.352;149.036;2023-05-19T10:59:54;3.05;;;1.77;;
40022;SDS011;25713;-35.352;149.036;2023-05-19T11:02:36;2.90;;;1.92;;
40022;SDS011;25713;-35.352;149.036;2023-05-19T11:05:07;1.70;;;1.60;;
40022;SDS011;25713;-35.352;149.036;2023-05-19T11:07:40;2.65;;;2.00;;
40022;SDS011;25713;-35.352;149.036;2023-05-19T11:10:12;3.22;;;1.88;;
40022;SDS011;25713;-35.352;149.036;2023-05-19T11:12:50;2.45;;;2.05;;
40022;SDS011;25713;-35.352;149.036;2023-05-19T11:15:24;2.38;;;1.75;;
40022;SDS011;25713;-35.352;149.036;2023-05-19T11:17:55;2.38;;;1.90;;
40022;SDS011;25713;-35.352;149.036;2023-05-19T11:20:27;2.47;;;1.77;;
40022;SDS011;25713;-35.352;149.036;2023-05-19T11:23:04;2.60;;;1.75;;
40022;SDS011;25713;-35.352;149.036;2023-05-19T11:25:46;2.25;;;1.77;;
40022;SDS011;25713;-35.352;149.036;2023-05-19T11:28:16;2.65;;;1.98;;
40022;SDS011;25713;-35.352;149.036;2023-05-19T11:30:47;2.67;;;1.60;;
40022;SDS011;25713;-35.352;149.036;2023-05-19T11:33:18;2.53;;;1.88;;
40022;SDS011;25713;-35.352;149.036;2023-05-19T11:35:48;2.70;;;1.90;;
40022;SDS011;25713;-35.352;149.036;2023-05-19T11:38:19;3.63;;;2.30;;
40022;SDS011;25713;-35.352;149.036;2023-05-19T11:40:51;2.67;;;2.20;;
40022;SDS011;25713;-35.352;149.036;2023-05-19T11:43:21;3.60;;;2.53;;
40022;SDS011;25713;-35.352;149.036;2023-05-19T11:45:52;3.88;;;2.20;;
40022;SDS011;25713;-35.352;149.036;2023-05-19T11:48:22;3.75;;;2.70;;
40022;SDS011;25713;-35.352;149.036;2023-05-19T11:50:52;3.38;;;2.72;;
40022;SDS011;25713;-35.352;149.036;2023-05-19T11:53:22;3.20;;;2.28;;
40022;SDS011;25713;-35.352;149.036;2023-05-19T11:55:54;3.22;;;2.42;;
40022;SDS011;25713;-35.352;149.036;2023-05-19T11:58:29;4.28;;;2.65;;
40022;SDS011;25713;-35.352;149.036;2023-05-19T12:01:02;4.15;;;2.58;;
40022;SDS011;25713;-35.352;149.036;2023-05-19T12:03:31;3.95;;;2.70;;
40022;SDS011;25713;-35.352;149.036;2023-05-19T12:06:01;3.78;;;2.50;;
40022;SDS011;25713;-35.352;149.036;2023-05-19T12:08:32;4.95;;;3.40;;
40022;SDS011;25713;-35.352;149.036;2023-05-19T12:11:06;6.40;;;2.60;;
40022;SDS011;25713;-35.352;149.036;2023-05-19T12:13:37;5.30;;;2.67;;
40022;SDS011;25713;-35.352;149.036;2023-05-19T12:16:07;3.33;;;2.50;;
40022;SDS011;25713;-35.352;149.036;2023-05-19T12:18:37;3.17;;;2.67;;
40022;SDS011;25713;-35.352;149.036;2023-05-19T12:21:06;7.18;;;3.13;;
40022;SDS011;25713;-35.352;149.036;2023-05-19T12:23:36;4.60;;;3.15;;
40022;SDS011;25713;-35.352;149.036;2023-05-19T12:26:09;4.00;;;2.83;;
40022;SDS011;25713;-35.352;149.036;2023-05-19T12:28:39;3.17;;;2.70;;
40022;SDS011;25713;-35.352;149.036;2023-05-19T12:31:11;3.20;;;2.63;;
40022;SDS011;25713;-35.352;149.036;2023-05-19T12:33:40;3.67;;;2.67;;
40022;SDS011;25713;-35.352;149.036;2023-05-19T12:36:10;4.72;;;3.33;;
40022;SDS011;25713;-35.352;149.036;2023-05-19T12:38:40;4.72;;;3.28;;
40022;SDS011;25713;-35.352;149.036;2023-05-19T12:41:13;5.75;;;3.65;;
40022;SDS011;25713;-35.352;149.036;2023-05-19T12:43:43;5.97;;;3.97;;
40022;SDS011;25713;-35.352;149.036;2023-05-19T12:46:13;6.95;;;3.80;;
40022;SDS011;25713;-35.352;149.036;2023-05-19T12:48:45;5.28;;;3.90;;
40022;SDS011;25713;-35.352;149.036;2023-05-19T12:51:18;6.32;;;4.35;;
40022;SDS011;25713;-35.352;149.036;2023-05-19T12:56:20;7.03;;;3.88;;
40022;SDS011;25713;-35.352;149.036;2023-05-19T12:58:52;5.43;;;3.97;;
40022;SDS011;25713;-35.352;149.036;2023-05-19T13:01:22;4.95;;;3.83;;
40022;SDS011;25713;-35.352;149.036;2023-05-19T13:03:52;7.63;;;4.20;;
40022;SDS011;25713;-35.352;149.036;2023-05-19T13:06:21;5.07;;;3.47;;
40022;SDS011;25713;-35.352;149.036;2023-05-19T13:08:51;4.43;;;3.60;;
40022;SDS011;25713;-35.352;149.036;2023-05-19T13:11:24;4.60;;;3.58;;
40022;SDS011;25713;-35.352;149.036;2023-05-19T13:13:54;5.72;;;3.63;;
40022;SDS011;25713;-35.352;149.036;2023-05-19T13:16:24;5.65;;;3.58;;
40022;SDS011;25713;-35.352;149.036;2023-05-19T13:18:53;6.53;;;4.05;;
40022;SDS011;25713;-35.352;149.036;2023-05-19T13:21:23;6.68;;;3.88;;
40022;SDS011;25713;-35.352;149.036;2023-05-19T13:23:52;5.07;;;3.50;;
40022;SDS011;25713;-35.352;149.036;2023-05-19T13:26:25;6.05;;;3.92;;
40022;SDS011;25713;-35.352;149.036;2023-05-19T13:28:54;7.22;;;4.00;;
40022;SDS011;25713;-35.352;149.036;2023-05-19T13:31:24;6.43;;;4.10;;
40022;SDS011;25713;-35.352;149.036;2023-05-19T13:33:53;7.13;;;4.20;;
40022;SDS011;25713;-35.352;149.036;2023-05-19T13:36:23;5.82;;;3.97;;
40022;SDS011;25713;-35.352;149.036;2023-05-19T13:38:53;7.97;;;4.30;;
40022;SDS011;25713;-35.352;149.036;2023-05-19T13:41:26;8.63;;;4.40;;
40022;SDS011;25713;-35.352;149.036;2023-05-19T13:43:56;6.80;;;3.90;;
40022;SDS011;25713;-35.352;149.036;2023-05-19T13:46:26;5.53;;;3.92;;
40022;SDS011;25713;-35.352;149.036;2023-05-19T13:48:56;6.32;;;3.88;;
40022;SDS011;25713;-35.352;149.036;2023-05-19T13:51:25;5.68;;;3.65;;
40022;SDS011;25713;-35.352;149.036;2023-05-19T13:53:55;5.38;;;3.80;;
40022;SDS011;25713;-35.352;149.036;2023-05-19T13:56:28;6.47;;;3.90;;
40022;SDS011;25713;-35.352;149.036;2023-05-19T13:58:58;6.20;;;3.80;;
40022;SDS011;25713;-35.352;149.036;2023-05-19T14:01:28;5.57;;;3.67;;
40022;SDS011;25713;-35.352;149.036;2023-05-19T14:03:57;4.25;;;3.30;;
40022;SDS011;25713;-35.352;149.036;2023-05-19T14:06:27;5.10;;;3.30;;
40022;SDS011;25713;-35.352;149.036;2023-05-19T14:08:56;4.20;;;3.30;;
40022;SDS011;25713;-35.352;149.036;2023-05-19T14:11:29;4.50;;;2.95;;
40022;SDS011;25713;-35.352;149.036;2023-05-19T14:13:59;4.93;;;3.20;;
40022;SDS011;25713;-35.352;149.036;2023-05-19T14:16:28;4.78;;;3.17;;
40022;SDS011;25713;-35.352;149.036;2023-05-19T14:18:58;3.72;;;2.95;;
40022;SDS011;25713;-35.352;149.036;2023-05-19T14:21:28;4.32;;;3.00;;
40022;SDS011;25713;-35.352;149.036;2023-05-19T14:23:57;5.28;;;3.53;;
40022;SDS011;25713;-35.352;149.036;2023-05-19T14:26:30;3.63;;;2.85;;
40022;SDS011;25713;-35.352;149.036;2023-05-19T14:29:00;5.03;;;3.00;;
40022;SDS011;25713;-35.352;149.036;2023-05-19T14:31:29;4.72;;;3.22;;
40022;SDS011;25713;-35.352;149.036;2023-05-19T14:33:59;4.47;;;3.17;;
40022;SDS011;25713;-35.352;149.036;2023-05-19T14:36:29;6.18;;;3.60;;
40022;SDS011;25713;-35.352;149.036;2023-05-19T14:38:58;5.53;;;3.22;;
40022;SDS011;25713;-35.352;149.036;2023-05-19T14:41:31;4.78;;;3.38;;